Duke Street, Reading, Berkshire, RG1 4RU, United Kingdom

Reading Town Centre Webcam

Live Image

Oscura's Reading Webcam is aimed out of our top floor offices in Duke Street, central Reading town centre, Berkshire. Our camera is facing South West with a view of the Reading Oracle Shopping Centre.

Previous Hours

Current weather conditions and forecast for Reading, Berkshire

When Temp Weather Wind Cloud Humidity Rain Snow
Now 23C Partly Cloudy 6mph W 47% 59% 0% 0%
15 Sep 20:00 20C Fair 4mph WNW 61% 83% 0% 0%
15 Sep 23:00 17C Partly Cloudy 4mph W 66% 94% 0% 0%
16 Sep 02:00 14C 4mph W 84% 95% 0% 0%
16 Sep 05:00 14C Partly Cloudy 8mph W 73% 97% 0% 0%
16 Sep 08:00 14C Partly Cloudy 6mph W 85% 91% 0% 0%
16 Sep 11:00 16C Partly Cloudy 6mph WNW 87% 82% 23% 0%
16 Sep 14:00 18C Intermittent Rain 6mph NNW 94% 81% 47% 0%
16 Sep 17:00 18C Cloudy 8mph NNE 97% 77% 0% 0%
16 Sep 20:00 17C Cloudy 6mph NNE 99% 76% 23% 0%
16 Sep 23:00 15C Partly Cloudy 6mph NNE 89% 85% 23% 0%
17 Sep 02:00 13C Partly Cloudy 6mph N 69% 84% 0% 0%
17 Sep 05:00 11C Partly Cloudy 4mph N 52% 91% 23% 0%
17 Sep 08:00 10C Fair 4mph N 40% 95% 0% 0%
17 Sep 11:00 13C Fair 6mph NNE 27% 70% 25% 0%
17 Sep 14:00 16C Clear 6mph N 0% 51% 0% 0%
17 Sep 17:00 17C Clear 8mph N 0% 45% 0% 0%
17 Sep 20:00 14C Clear 4mph NNE 0% 64% 0% 0%
17 Sep 23:00 10C Clear 4mph NNE 0% 71% 0% 0%
18 Sep 02:00 8C Clear 2mph NE 0% 76% 0% 0%
18 Sep 06:00 7C Clear 0mph NNE 0% 82% 0% 0%
18 Sep 09:00 8C Clear 2mph NNE 0% 75% 0% 0%
18 Sep 12:00 14C Fair 4mph NE 6% 57% 0% 0%
18 Sep 15:00 17C Clear 4mph NNE 0% 50% 0% 0%
18 Sep 18:00 16C Partly Cloudy 6mph NE 78% 55% 0% 0%


Oscura provide website development, web server hosting, Internet services and IT Support in Reading and the surrounding area.